Terminal Aerodrome Forecast
Issued by NWS

Home | Current Version | Previous Version | Text Only | Print | Product List | Glossary On
Versions: 1 2 3 4 5 6 7 8 9 10 11 12 13 14 15 16 17 18 19 20 21 22 23 24 25
170
FTUS46 KOTX 041732
TAFSFF
TAF
KSFF 041732Z 0418/0518 18006KT P6SM VCSH SCT080 BKN200
     FM050000 06004KT P6SM VCSH SCT070 BKN100
     FM050100 02004KT P6SM TSRA BKN070CB BKN100
     FM050400 02004KT P6SM SCT070 BKN100
     FM050800 19004KT P6SM TSRA BKN080CB BKN120
     FM051100 18004KT P6SM VCSH BKN080 BKN120 OVC200=

USA.gov is the U.S. government's official web portal to all federal, state and local government web resources and services.